Forside
METAR-TAF:

METAR-TAF

Lufthavne :

Esbjerg Lufthavn

Esbjerg, Danmark

Breddekreds: 55-32N, længdekreds: 008-34E, højde: 30 m

Aktuelle vejr

Denne rapport blev lavet for 42 minutter siden, kl. 03:20 UTC
Vind 16 kt fra vestsydvest med vindstød på up til 29 kt
Temperatur 6°C
Fugtighed 87%
Tryk 1009 hPa
Sigt 10 km eller mere

METAR: EKEB 180320Z AUTO 24016G29KT 9999 BKN010/// 06/04 Q1009

Tid: 05:02 (04:02 UTC)

Vejrudsigter

Denne rapport blev lavet for 10 minutter siden, kl. 03:52 UTC
Foreløbig gælder fra 18 på 04 UTC til 18 på 12 UTC
Vind 12 kt fra vestsydvest
Sigt 10 km eller mere
Brudte skyer i en højde af 2000 ft
Midlertidig
fra 18 på 04 UTC til 18 på 12 UTC
Vind 15 kt fra vest med vindstød på up til 25 kt
Brudte skyer i en højde af 800 ft
Spredte skyer i en højde af 2000 ft, Cumulonimbus.
regnbyger

TAF: EKEB 180352Z 1804/1812 24012KT 9999 BKN020 TEMPO 1804/1812 26015G25KT SHRA BKN008 SCT020CB

Vejrobservationer og prognoser fra mere end 4000 lufthavne (METAR og TAF).

De gule og røde prikker repræsenterer de meteorologiske stationer.

Flyt musen over at se navnet på stationen.

Så klik over at se vejr observationer og prognoser.

At skifte det kort: Klik på de grønne knapper med et sort kors for at zoome ind; på den grønne knap med en bindestreg for at zoome ud; eller på de grønne pile for tilstødende kort.


METAR-TAF: